EAGO2: Mountain Fork Riv, Eagletown,

                                SHEF ID:       EAGO2     Mountain Fork near Eagletown, OK
STATION TYPE: Stream Gauge
Regulating: Stage = 9.00, Flow = 9433

PRECIP STAGE RIV-FLOW WTR-TEMP BAT-LOAD
in ft cfs F volt
Ccp-Rev Ccp-Rev Ccp-Rev Ccp-Rev Ccp-Rev
(America/Chicago)
07/16 00:00 ---- ---- ---- ---- ----
07/16 01:00 ---- 2.78 1158 78.15 ----
07/16 02:00 ---- 2.64 1046 77.63 12.57
07/16 03:00 ---- 2.50 936 77.05 ----
07/16 04:00 ---- 2.38 848 76.62 12.41
07/16 05:00 0.00 2.26 765 76.12 12.49
07/16 06:00 0.00 2.15 694 75.56 12.65
07/16 07:00 0.00 2.05 636 75.06 12.65
07/16 08:00 0.00 1.95 582 74.50 12.73
07/16 09:00 ---- ---- ---- ---- ----
07/16 10:00 ---- 1.80 508 74.16 ----
07/16 11:00 ---- 1.73 476 74.32 13.37
07/16 12:00 0.00 1.66 446 74.98 13.37
07/16 13:00 0.00 1.59 417 75.63 13.37
07/16 14:00 0.00 1.52 390 76.17 13.05
07/16 15:00 0.00 1.49 378 76.62 12.97
07/16 16:00 0.00 1.44 360 77.25 12.89
07/16 17:00 0.00 1.40 345 77.68 12.97
07/16 18:00 0.00 1.60 421 78.06 12.97
07/16 19:00 0.00 2.68 1077 78.58 12.89
07/16 20:00 0.01 3.88 2259 74.77 12.89
07/16 21:00 0.00 4.47 2962 73.90 12.81
07/16 22:00 0.00 4.46 2949 74.64 12.49
07/16 23:00 0.00 4.28 2729 74.55 12.73
Data processed at Fri 17Jul2026 04:39 GMT

NOTICE: If you are parsing this page

Please convert to using our Data API. Starting early 2026 we will be migrating to: https://water.usace.army.mil with modern pages rendered in JavaScript. When this migration completes you will no longer be able to scrape this page! CWMSDataAPI (CDA)

Timeseries IDs (TSIDs)

TSIDs used from left to right in the data table
EAGL.Precip-Inc.Total.1Hour.1Hour.Ccp-Rev
EAGL.Stage.Inst.1Hour.0.Ccp-Rev
EAGL.Flow.Inst.1Hour.0.Ccp-Rev
EAGL.Temp-Water.Inst.1Hour.0.Ccp-Rev
EAGL.Volt-Battery Load.Inst.1Hour.0.Ccp-Rev

                            

All information presented herein is the property of the government of the United States of America and may be revised or deleted at any time without prior notice. Dissemination of this information without the expressed written consent of the Public Affairs Office, Tulsa District U.S. Army Corps of Engineers is strictly prohibited. These data are gathered electronically and, as presented, have NOT undergone any form of quality control. These data are NOT guaranteed to be valid or correct.